Paradise, California
Current Conditions -  °F | °C
As of 7:15 PM on Friday 21 Nov 2014 (Local Time) from KCIC Reporting Station
Overcast Overcast  
Wind Chill: 54°   Ceiling: 4600
Heat Index: 54°   Visibility: 10mi
Dew Point: 50°   Wind: 10mph
Humidity: 88%   Direction: 140°SE
Pressure: 30.11"   Gusts: NA
Location:  39.75°N, 121.6°W
Report Text: KCIC 220315Z AUTO 14009KT 10SM OVC046 12/10 A3011 RMK AO1
Loading
Personal Weather Stations






























Interactive Weather Map New forecast layout! Learn more

10-Day Weather Forecast

Advertisements
Track Severe Weather on mobile